sensor_id;sensor_type;location;lat;lon;timestamp;temperature;humidity
19037;DHT22;9651;49.138;8.900;2023-03-24T00:03:56;12.50;99.90
19037;DHT22;9651;49.138;8.900;2023-03-24T00:07:58;12.50;99.90
19037;DHT22;9651;49.138;8.900;2023-03-24T00:12:04;12.50;99.90
19037;DHT22;9651;49.138;8.900;2023-03-24T00:16:07;12.50;99.90
19037;DHT22;9651;49.138;8.900;2023-03-24T00:20:12;12.40;99.90
19037;DHT22;9651;49.138;8.900;2023-03-24T00:24:15;12.30;99.90
19037;DHT22;9651;49.138;8.900;2023-03-24T00:28:19;12.20;99.90
19037;DHT22;9651;49.138;8.900;2023-03-24T00:32:22;12.10;99.90
19037;DHT22;9651;49.138;8.900;2023-03-24T00:36:25;12.10;99.90
19037;DHT22;9651;49.138;8.900;2023-03-24T00:40:28;12.10;99.90
19037;DHT22;9651;49.138;8.900;2023-03-24T00:44:32;12.10;99.90
19037;DHT22;9651;49.138;8.900;2023-03-24T00:48:34;12.00;99.90
19037;DHT22;9651;49.138;8.900;2023-03-24T00:52:37;12.00;99.90
19037;DHT22;9651;49.138;8.900;2023-03-24T00:56:43;12.00;99.90
19037;DHT22;9651;49.138;8.900;2023-03-24T01:00:56;12.00;99.90
19037;DHT22;9651;49.138;8.900;2023-03-24T01:04:59;12.00;99.90
19037;DHT22;9651;49.138;8.900;2023-03-24T01:09:03;12.00;99.90
19037;DHT22;9651;49.138;8.900;2023-03-24T01:13:05;12.00;99.90
19037;DHT22;9651;49.138;8.900;2023-03-24T01:17:09;12.00;99.90
19037;DHT22;9651;49.138;8.900;2023-03-24T01:21:11;12.00;99.90
19037;DHT22;9651;49.138;8.900;2023-03-24T01:25:16;12.10;99.90
19037;DHT22;9651;49.138;8.900;2023-03-24T01:29:18;12.20;99.90
19037;DHT22;9651;49.138;8.900;2023-03-24T01:33:22;12.30;99.90
19037;DHT22;9651;49.138;8.900;2023-03-24T01:37:24;12.30;99.90
19037;DHT22;9651;49.138;8.900;2023-03-24T01:41:26;12.40;99.90
19037;DHT22;9651;49.138;8.900;2023-03-24T01:50:02;12.50;99.90
19037;DHT22;9651;49.138;8.900;2023-03-24T01:54:08;12.50;99.90
19037;DHT22;9651;49.138;8.900;2023-03-24T01:58:12;12.60;99.90
19037;DHT22;9651;49.138;8.900;2023-03-24T02:02:34;12.70;99.90
19037;DHT22;9651;49.138;8.900;2023-03-24T02:06:41;12.70;99.90
19037;DHT22;9651;49.138;8.900;2023-03-24T02:10:44;12.80;99.90
19037;DHT22;9651;49.138;8.900;2023-03-24T02:14:46;12.80;99.90
19037;DHT22;9651;49.138;8.900;2023-03-24T02:18:56;12.80;99.90
19037;DHT22;9651;49.138;8.900;2023-03-24T02:23:31;12.80;99.90
19037;DHT22;9651;49.138;8.900;2023-03-24T02:27:59;12.80;99.90
19037;DHT22;9651;49.138;8.900;2023-03-24T02:32:17;12.80;99.90
19037;DHT22;9651;49.138;8.900;2023-03-24T02:36:48;12.80;99.90
19037;DHT22;9651;49.138;8.900;2023-03-24T02:41:00;12.80;99.90
19037;DHT22;9651;49.138;8.900;2023-03-24T02:45:12;12.80;99.90
19037;DHT22;9651;49.138;8.900;2023-03-24T02:49:25;12.80;99.90
19037;DHT22;9651;49.138;8.900;2023-03-24T02:53:37;12.70;99.90
19037;DHT22;9651;49.138;8.900;2023-03-24T02:58:00;12.80;99.90
19037;DHT22;9651;49.138;8.900;2023-03-24T03:02:24;12.80;99.90
19037;DHT22;9651;49.138;8.900;2023-03-24T03:06:36;12.80;99.90
19037;DHT22;9651;49.138;8.900;2023-03-24T03:10:41;12.70;99.90
19037;DHT22;9651;49.138;8.900;2023-03-24T03:14:49;12.70;99.90
19037;DHT22;9651;49.138;8.900;2023-03-24T03:18:55;12.70;99.90
19037;DHT22;9651;49.138;8.900;2023-03-24T03:23:01;12.70;99.90
19037;DHT22;9651;49.138;8.900;2023-03-24T03:27:08;12.70;99.90
19037;DHT22;9651;49.138;8.900;2023-03-24T03:31:18;12.70;99.90
19037;DHT22;9651;49.138;8.900;2023-03-24T03:35:26;12.80;99.90
19037;DHT22;9651;49.138;8.900;2023-03-24T03:39:32;12.80;99.90
19037;DHT22;9651;49.138;8.900;2023-03-24T03:43:38;12.80;99.90
19037;DHT22;9651;49.138;8.900;2023-03-24T03:47:42;12.80;99.90
19037;DHT22;9651;49.138;8.900;2023-03-24T03:51:45;12.80;99.90
19037;DHT22;9651;49.138;8.900;2023-03-24T03:55:47;12.80;99.90
19037;DHT22;9651;49.138;8.900;2023-03-24T03:59:49;12.80;99.90
19037;DHT22;9651;49.138;8.900;2023-03-24T04:04:14;12.80;99.90
19037;DHT22;9651;49.138;8.900;2023-03-24T04:08:47;12.90;99.90
19037;DHT22;9651;49.138;8.900;2023-03-24T04:13:02;12.90;99.90
19037;DHT22;9651;49.138;8.900;2023-03-24T04:17:54;12.90;99.90
19037;DHT22;9651;49.138;8.900;2023-03-24T04:22:24;12.90;99.90
19037;DHT22;9651;49.138;8.900;2023-03-24T04:26:49;12.80;99.90
19037;DHT22;9651;49.138;8.900;2023-03-24T04:30:57;12.80;99.90
19037;DHT22;9651;49.138;8.900;2023-03-24T04:35:06;12.80;99.90
19037;DHT22;9651;49.138;8.900;2023-03-24T04:39:34;12.80;99.90
19037;DHT22;9651;49.138;8.900;2023-03-24T04:43:40;12.80;99.90
19037;DHT22;9651;49.138;8.900;2023-03-24T04:47:46;12.80;99.90
19037;DHT22;9651;49.138;8.900;2023-03-24T04:52:02;12.80;99.90
19037;DHT22;9651;49.138;8.900;2023-03-24T04:56:25;12.80;99.90
19037;DHT22;9651;49.138;8.900;2023-03-24T05:01:00;12.80;99.90
19037;DHT22;9651;49.138;8.900;2023-03-24T05:05:05;12.80;99.90
19037;DHT22;9651;49.138;8.900;2023-03-24T05:09:11;12.70;99.90
19037;DHT22;9651;49.138;8.900;2023-03-24T05:13:16;12.60;99.90
19037;DHT22;9651;49.138;8.900;2023-03-24T05:17:24;12.60;99.90
19037;DHT22;9651;49.138;8.900;2023-03-24T05:21:26;12.60;99.90
19037;DHT22;9651;49.138;8.900;2023-03-24T05:25:28;12.60;99.90
19037;DHT22;9651;49.138;8.900;2023-03-24T05:29:32;12.60;99.90
19037;DHT22;9651;49.138;8.900;2023-03-24T05:33:34;12.60;99.90
19037;DHT22;9651;49.138;8.900;2023-03-24T05:37:36;12.50;99.90
19037;DHT22;9651;49.138;8.900;2023-03-24T05:41:38;12.50;99.90
19037;DHT22;9651;49.138;8.900;2023-03-24T05:45:42;12.50;99.90
19037;DHT22;9651;49.138;8.900;2023-03-24T05:49:48;12.50;99.90
19037;DHT22;9651;49.138;8.900;2023-03-24T05:53:51;12.50;99.90
19037;DHT22;9651;49.138;8.900;2023-03-24T05:58:02;12.40;99.90
19037;DHT22;9651;49.138;8.900;2023-03-24T06:02:22;12.50;99.90
19037;DHT22;9651;49.138;8.900;2023-03-24T06:06:29;12.40;99.90
19037;DHT22;9651;49.138;8.900;2023-03-24T06:10:31;12.50;99.90
19037;DHT22;9651;49.138;8.900;2023-03-24T06:14:36;12.50;99.90
19037;DHT22;9651;49.138;8.900;2023-03-24T06:18:45;12.50;99.90
19037;DHT22;9651;49.138;8.900;2023-03-24T06:23:04;12.50;99.90
19037;DHT22;9651;49.138;8.900;2023-03-24T06:27:21;12.70;99.90
19037;DHT22;9651;49.138;8.900;2023-03-24T06:31:26;12.80;99.90
19037;DHT22;9651;49.138;8.900;2023-03-24T06:35:31;12.80;99.90
19037;DHT22;9651;49.138;8.900;2023-03-24T06:39:42;12.80;99.90
19037;DHT22;9651;49.138;8.900;2023-03-24T06:43:45;12.90;99.90
19037;DHT22;9651;49.138;8.900;2023-03-24T06:47:48;12.90;99.90
19037;DHT22;9651;49.138;8.900;2023-03-24T06:51:57;13.00;99.90
19037;DHT22;9651;49.138;8.900;2023-03-24T06:56:07;13.00;99.90
19037;DHT22;9651;49.138;8.900;2023-03-24T07:00:16;13.00;99.90
19037;DHT22;9651;49.138;8.900;2023-03-24T07:04:31;12.90;99.90
19037;DHT22;9651;49.138;8.900;2023-03-24T07:08:53;13.00;99.90
19037;DHT22;9651;49.138;8.900;2023-03-24T07:12:58;13.00;99.90
19037;DHT22;9651;49.138;8.900;2023-03-24T07:17:01;13.10;99.90
19037;DHT22;9651;49.138;8.900;2023-03-24T07:21:06;13.20;99.90
19037;DHT22;9651;49.138;8.900;2023-03-24T07:25:11;13.20;99.90
19037;DHT22;9651;49.138;8.900;2023-03-24T07:29:25;13.20;99.90
19037;DHT22;9651;49.138;8.900;2023-03-24T07:33:45;13.20;99.90
19037;DHT22;9651;49.138;8.900;2023-03-24T07:37:48;13.20;99.90
19037;DHT22;9651;49.138;8.900;2023-03-24T07:41:51;13.20;99.90
19037;DHT22;9651;49.138;8.900;2023-03-24T07:46:10;13.20;99.90
19037;DHT22;9651;49.138;8.900;2023-03-24T07:50:12;13.20;99.90
19037;DHT22;9651;49.138;8.900;2023-03-24T07:54:15;13.30;99.90
19037;DHT22;9651;49.138;8.900;2023-03-24T07:58:22;13.30;99.90
19037;DHT22;9651;49.138;8.900;2023-03-24T08:02:37;13.30;99.90
19037;DHT22;9651;49.138;8.900;2023-03-24T08:07:18;13.40;99.90
19037;DHT22;9651;49.138;8.900;2023-03-24T08:11:20;13.40;99.90
19037;DHT22;9651;49.138;8.900;2023-03-24T08:15:24;13.60;99.90
19037;DHT22;9651;49.138;8.900;2023-03-24T08:19:26;13.80;99.90
19037;DHT22;9651;49.138;8.900;2023-03-24T08:23:28;13.90;99.90
19037;DHT22;9651;49.138;8.900;2023-03-24T08:27:30;14.00;99.90
19037;DHT22;9651;49.138;8.900;2023-03-24T08:31:34;14.10;99.90
19037;DHT22;9651;49.138;8.900;2023-03-24T08:35:36;14.30;99.90
19037;DHT22;9651;49.138;8.900;2023-03-24T08:39:39;14.40;99.90
19037;DHT22;9651;49.138;8.900;2023-03-24T08:43:41;14.30;99.90
19037;DHT22;9651;49.138;8.900;2023-03-24T08:47:44;14.20;99.90
19037;DHT22;9651;49.138;8.900;2023-03-24T08:51:46;14.30;99.90
19037;DHT22;9651;49.138;8.900;2023-03-24T08:55:48;14.40;99.90
19037;DHT22;9651;49.138;8.900;2023-03-24T08:59:51;14.50;99.90
19037;DHT22;9651;49.138;8.900;2023-03-24T09:03:54;14.50;99.90
19037;DHT22;9651;49.138;8.900;2023-03-24T09:07:57;14.40;99.90
19037;DHT22;9651;49.138;8.900;2023-03-24T09:12:00;14.40;99.90
19037;DHT22;9651;49.138;8.900;2023-03-24T09:16:02;14.40;99.90
19037;DHT22;9651;49.138;8.900;2023-03-24T09:20:08;14.30;99.90
19037;DHT22;9651;49.138;8.900;2023-03-24T09:24:12;14.30;99.90
19037;DHT22;9651;49.138;8.900;2023-03-24T09:28:14;14.30;99.90
19037;DHT22;9651;49.138;8.900;2023-03-24T09:32:16;14.30;99.90
19037;DHT22;9651;49.138;8.900;2023-03-24T09:36:19;14.30;99.90
19037;DHT22;9651;49.138;8.900;2023-03-24T09:40:24;14.30;99.90
19037;DHT22;9651;49.138;8.900;2023-03-24T09:44:29;14.40;99.90
19037;DHT22;9651;49.138;8.900;2023-03-24T09:48:35;14.40;99.90
19037;DHT22;9651;49.138;8.900;2023-03-24T09:52:43;14.50;99.90
19037;DHT22;9651;49.138;8.900;2023-03-24T09:56:46;14.60;99.90
19037;DHT22;9651;49.138;8.900;2023-03-24T10:00:48;14.70;99.90
19037;DHT22;9651;49.138;8.900;2023-03-24T10:04:50;14.90;99.90
19037;DHT22;9651;49.138;8.900;2023-03-24T10:09:03;15.10;99.90
19037;DHT22;9651;49.138;8.900;2023-03-24T10:13:12;15.40;99.90
19037;DHT22;9651;49.138;8.900;2023-03-24T10:17:25;15.50;99.90
19037;DHT22;9651;49.138;8.900;2023-03-24T10:21:32;15.40;99.90
19037;DHT22;9651;49.138;8.900;2023-03-24T10:25:44;15.30;99.90
19037;DHT22;9651;49.138;8.900;2023-03-24T10:29:48;15.30;99.90
19037;DHT22;9651;49.138;8.900;2023-03-24T10:33:55;15.20;99.90
19037;DHT22;9651;49.138;8.900;2023-03-24T10:37:58;15.20;99.90
19037;DHT22;9651;49.138;8.900;2023-03-24T10:42:04;15.20;99.90
19037;DHT22;9651;49.138;8.900;2023-03-24T10:46:07;15.20;99.90
19037;DHT22;9651;49.138;8.900;2023-03-24T10:50:10;15.10;99.90
19037;DHT22;9651;49.138;8.900;2023-03-24T10:54:16;15.10;99.90
19037;DHT22;9651;49.138;8.900;2023-03-24T10:58:28;15.10;99.90
19037;DHT22;9651;49.138;8.900;2023-03-24T11:02:31;14.90;99.90
19037;DHT22;9651;49.138;8.900;2023-03-24T11:06:34;14.70;99.90
19037;DHT22;9651;49.138;8.900;2023-03-24T11:10:36;14.70;99.90
19037;DHT22;9651;49.138;8.900;2023-03-24T11:14:43;15.00;99.90
19037;DHT22;9651;49.138;8.900;2023-03-24T11:18:58;15.50;99.90
19037;DHT22;9651;49.138;8.900;2023-03-24T11:23:02;15.50;99.90
19037;DHT22;9651;49.138;8.900;2023-03-24T11:27:05;15.40;99.90
19037;DHT22;9651;49.138;8.900;2023-03-24T11:31:11;15.30;99.90
19037;DHT22;9651;49.138;8.900;2023-03-24T11:35:18;15.20;99.90
19037;DHT22;9651;49.138;8.900;2023-03-24T11:39:22;15.20;99.90
19037;DHT22;9651;49.138;8.900;2023-03-24T11:43:24;15.00;99.90
19037;DHT22;9651;49.138;8.900;2023-03-24T11:47:30;14.90;99.90
19037;DHT22;9651;49.138;8.900;2023-03-24T11:51:35;14.70;99.90
19037;DHT22;9651;49.138;8.900;2023-03-24T11:55:42;14.70;99.90
19037;DHT22;9651;49.138;8.900;2023-03-24T11:59:50;15.10;99.90
19037;DHT22;9651;49.138;8.900;2023-03-24T12:04:21;15.60;99.90
19037;DHT22;9651;49.138;8.900;2023-03-24T12:08:36;15.80;99.90
19037;DHT22;9651;49.138;8.900;2023-03-24T12:12:48;15.80;99.90
19037;DHT22;9651;49.138;8.900;2023-03-24T12:16:57;15.60;99.90
19037;DHT22;9651;49.138;8.900;2023-03-24T12:21:13;14.60;99.90
19037;DHT22;9651;49.138;8.900;2023-03-24T12:29:59;13.40;99.90
19037;DHT22;9651;49.138;8.900;2023-03-24T12:34:10;13.00;99.90
19037;DHT22;9651;49.138;8.900;2023-03-24T12:38:26;12.80;99.90
19037;DHT22;9651;49.138;8.900;2023-03-24T12:42:34;12.70;99.90
19037;DHT22;9651;49.138;8.900;2023-03-24T12:46:44;12.80;99.90
19037;DHT22;9651;49.138;8.900;2023-03-24T12:51:01;13.00;99.90
19037;DHT22;9651;49.138;8.900;2023-03-24T12:55:10;13.10;99.90
19037;DHT22;9651;49.138;8.900;2023-03-24T12:59:17;13.10;99.90
19037;DHT22;9651;49.138;8.900;2023-03-24T13:03:24;13.00;99.90
19037;DHT22;9651;49.138;8.900;2023-03-24T13:07:29;12.80;99.90
19037;DHT22;9651;49.138;8.900;2023-03-24T13:11:40;12.80;99.90
19037;DHT22;9651;49.138;8.900;2023-03-24T13:15:46;12.70;99.90
19037;DHT22;9651;49.138;8.900;2023-03-24T13:19:50;12.60;99.90
19037;DHT22;9651;49.138;8.900;2023-03-24T13:23:56;12.50;99.90
19037;DHT22;9651;49.138;8.900;2023-03-24T13:28:06;12.50;99.90
19037;DHT22;9651;49.138;8.900;2023-03-24T13:32:16;12.50;99.90
19037;DHT22;9651;49.138;8.900;2023-03-24T13:36:30;12.50;99.90
19037;DHT22;9651;49.138;8.900;2023-03-24T13:40:37;12.60;99.90
19037;DHT22;9651;49.138;8.900;2023-03-24T13:44:42;12.60;99.90
19037;DHT22;9651;49.138;8.900;2023-03-24T13:48:48;12.80;99.90
19037;DHT22;9651;49.138;8.900;2023-03-24T13:52:51;13.20;99.90
19037;DHT22;9651;49.138;8.900;2023-03-24T13:56:55;13.50;99.90
19037;DHT22;9651;49.138;8.900;2023-03-24T14:01:16;13.80;99.90
19037;DHT22;9651;49.138;8.900;2023-03-24T14:05:53;13.90;99.90
19037;DHT22;9651;49.138;8.900;2023-03-24T14:09:59;13.90;99.90
19037;DHT22;9651;49.138;8.900;2023-03-24T14:14:05;13.80;99.90
19037;DHT22;9651;49.138;8.900;2023-03-24T14:18:37;13.60;99.90
19037;DHT22;9651;49.138;8.900;2023-03-24T14:22:44;13.50;99.90
19037;DHT22;9651;49.138;8.900;2023-03-24T14:26:48;13.50;99.90
19037;DHT22;9651;49.138;8.900;2023-03-24T14:31:20;13.70;99.90
19037;DHT22;9651;49.138;8.900;2023-03-24T14:35:33;14.10;99.90
19037;DHT22;9651;49.138;8.900;2023-03-24T14:39:40;14.20;99.90
19037;DHT22;9651;49.138;8.900;2023-03-24T14:43:55;14.30;99.90
19037;DHT22;9651;49.138;8.900;2023-03-24T14:47:58;14.10;99.90
19037;DHT22;9651;49.138;8.900;2023-03-24T14:52:10;14.20;99.90
19037;DHT22;9651;49.138;8.900;2023-03-24T14:56:15;14.20;99.90
19037;DHT22;9651;49.138;8.900;2023-03-24T15:00:20;14.20;99.90
19037;DHT22;9651;49.138;8.900;2023-03-24T15:04:23;14.40;99.90
19037;DHT22;9651;49.138;8.900;2023-03-24T15:08:27;14.50;99.90
19037;DHT22;9651;49.138;8.900;2023-03-24T15:12:29;14.60;99.90
19037;DHT22;9651;49.138;8.900;2023-03-24T15:16:32;14.70;99.90
19037;DHT22;9651;49.138;8.900;2023-03-24T15:20:36;14.80;99.90
19037;DHT22;9651;49.138;8.900;2023-03-24T15:24:41;14.70;99.90
19037;DHT22;9651;49.138;8.900;2023-03-24T15:28:44;14.90;99.90
19037;DHT22;9651;49.138;8.900;2023-03-24T15:32:46;15.10;99.90
19037;DHT22;9651;49.138;8.900;2023-03-24T15:36:53;14.90;99.90
19037;DHT22;9651;49.138;8.900;2023-03-24T15:41:00;14.90;99.90
19037;DHT22;9651;49.138;8.900;2023-03-24T15:45:08;14.80;99.90
19037;DHT22;9651;49.138;8.900;2023-03-24T15:49:22;14.80;99.90
19037;DHT22;9651;49.138;8.900;2023-03-24T15:53:27;14.90;99.90
19037;DHT22;9651;49.138;8.900;2023-03-24T15:57:37;14.80;99.90
19037;DHT22;9651;49.138;8.900;2023-03-24T16:01:40;14.90;99.90
19037;DHT22;9651;49.138;8.900;2023-03-24T16:05:46;14.70;99.90
19037;DHT22;9651;49.138;8.900;2023-03-24T16:09:55;14.60;99.90
19037;DHT22;9651;49.138;8.900;2023-03-24T16:14:00;14.60;99.90
19037;DHT22;9651;49.138;8.900;2023-03-24T16:18:03;14.60;99.90
19037;DHT22;9651;49.138;8.900;2023-03-24T16:22:09;14.80;99.90
19037;DHT22;9651;49.138;8.900;2023-03-24T16:26:12;14.90;99.90
19037;DHT22;9651;49.138;8.900;2023-03-24T16:30:21;15.00;99.90
19037;DHT22;9651;49.138;8.900;2023-03-24T16:34:24;15.10;99.90
19037;DHT22;9651;49.138;8.900;2023-03-24T16:38:26;15.10;99.90
19037;DHT22;9651;49.138;8.900;2023-03-24T16:42:28;15.00;99.90
19037;DHT22;9651;49.138;8.900;2023-03-24T16:46:33;14.80;99.90
19037;DHT22;9651;49.138;8.900;2023-03-24T16:50:37;14.70;99.90
19037;DHT22;9651;49.138;8.900;2023-03-24T16:54:39;14.60;99.90
19037;DHT22;9651;49.138;8.900;2023-03-24T16:58:41;14.60;99.90
19037;DHT22;9651;49.138;8.900;2023-03-24T17:02:44;14.60;99.90
19037;DHT22;9651;49.138;8.900;2023-03-24T17:06:49;14.60;99.90
19037;DHT22;9651;49.138;8.900;2023-03-24T17:10:53;14.40;99.90
19037;DHT22;9651;49.138;8.900;2023-03-24T17:14:54;14.30;99.90
19037;DHT22;9651;49.138;8.900;2023-03-24T17:18:58;14.20;99.90
19037;DHT22;9651;49.138;8.900;2023-03-24T17:23:00;14.10;99.90
19037;DHT22;9651;49.138;8.900;2023-03-24T17:27:02;14.00;99.90
19037;DHT22;9651;49.138;8.900;2023-03-24T17:31:04;13.80;99.90
19037;DHT22;9651;49.138;8.900;2023-03-24T17:35:09;13.70;99.90
19037;DHT22;9651;49.138;8.900;2023-03-24T17:39:15;13.60;99.90
19037;DHT22;9651;49.138;8.900;2023-03-24T17:43:17;13.50;99.90
19037;DHT22;9651;49.138;8.900;2023-03-24T17:47:19;13.30;99.90
19037;DHT22;9651;49.138;8.900;2023-03-24T17:51:22;13.20;99.90
19037;DHT22;9651;49.138;8.900;2023-03-24T17:55:24;13.00;99.90
19037;DHT22;9651;49.138;8.900;2023-03-24T17:59:26;12.90;99.90
19037;DHT22;9651;49.138;8.900;2023-03-24T18:03:28;12.70;99.90
19037;DHT22;9651;49.138;8.900;2023-03-24T18:07:31;12.50;99.90
19037;DHT22;9651;49.138;8.900;2023-03-24T18:11:34;12.40;99.90
19037;DHT22;9651;49.138;8.900;2023-03-24T18:15:39;12.30;99.90
19037;DHT22;9651;49.138;8.900;2023-03-24T18:19:42;12.10;99.90
19037;DHT22;9651;49.138;8.900;2023-03-24T18:23:45;12.00;99.90
19037;DHT22;9651;49.138;8.900;2023-03-24T18:27:47;11.90;99.90
19037;DHT22;9651;49.138;8.900;2023-03-24T18:31:50;11.80;99.90
19037;DHT22;9651;49.138;8.900;2023-03-24T18:35:52;11.70;99.90
19037;DHT22;9651;49.138;8.900;2023-03-24T18:39:55;11.70;99.90
19037;DHT22;9651;49.138;8.900;2023-03-24T18:43:58;11.60;99.90
19037;DHT22;9651;49.138;8.900;2023-03-24T18:48:00;11.60;99.90
19037;DHT22;9651;49.138;8.900;2023-03-24T18:52:02;11.50;99.90
19037;DHT22;9651;49.138;8.900;2023-03-24T18:56:07;11.50;99.90
19037;DHT22;9651;49.138;8.900;2023-03-24T19:00:10;11.50;99.90
19037;DHT22;9651;49.138;8.900;2023-03-24T19:04:12;11.40;99.90
19037;DHT22;9651;49.138;8.900;2023-03-24T19:08:14;11.40;99.90
19037;DHT22;9651;49.138;8.900;2023-03-24T19:12:18;11.30;99.90
19037;DHT22;9651;49.138;8.900;2023-03-24T19:16:20;11.30;99.90
19037;DHT22;9651;49.138;8.900;2023-03-24T19:20:22;11.30;99.90
19037;DHT22;9651;49.138;8.900;2023-03-24T19:24:24;11.30;99.90
19037;DHT22;9651;49.138;8.900;2023-03-24T19:28:29;11.20;99.90
19037;DHT22;9651;49.138;8.900;2023-03-24T19:32:31;11.20;99.90
19037;DHT22;9651;49.138;8.900;2023-03-24T19:36:33;11.10;99.90
19037;DHT22;9651;49.138;8.900;2023-03-24T19:40:39;11.10;99.90
19037;DHT22;9651;49.138;8.900;2023-03-24T19:44:42;11.10;99.90
19037;DHT22;9651;49.138;8.900;2023-03-24T19:48:44;11.20;99.90
19037;DHT22;9651;49.138;8.900;2023-03-24T19:52:46;11.30;99.90
19037;DHT22;9651;49.138;8.900;2023-03-24T19:56:48;11.40;99.90
19037;DHT22;9651;49.138;8.900;2023-03-24T20:00:51;11.40;99.90
19037;DHT22;9651;49.138;8.900;2023-03-24T20:04:53;11.40;99.90
19037;DHT22;9651;49.138;8.900;2023-03-24T20:08:55;11.40;99.90
19037;DHT22;9651;49.138;8.900;2023-03-24T20:12:57;11.50;99.90
19037;DHT22;9651;49.138;8.900;2023-03-24T20:17:00;11.50;99.90
19037;DHT22;9651;49.138;8.900;2023-03-24T20:21:02;11.60;99.90
19037;DHT22;9651;49.138;8.900;2023-03-24T20:25:07;11.60;99.90
19037;DHT22;9651;49.138;8.900;2023-03-24T20:29:09;11.60;99.90
19037;DHT22;9651;49.138;8.900;2023-03-24T20:33:12;11.70;99.90
19037;DHT22;9651;49.138;8.900;2023-03-24T20:37:14;11.70;99.90
19037;DHT22;9651;49.138;8.900;2023-03-24T20:41:17;11.80;99.90
19037;DHT22;9651;49.138;8.900;2023-03-24T20:45:21;11.80;99.90
19037;DHT22;9651;49.138;8.900;2023-03-24T20:49:24;11.80;99.90
19037;DHT22;9651;49.138;8.900;2023-03-24T20:53:27;11.80;99.90
19037;DHT22;9651;49.138;8.900;2023-03-24T20:57:28;11.60;99.90
19037;DHT22;9651;49.138;8.900;2023-03-24T21:01:31;11.60;99.90
19037;DHT22;9651;49.138;8.900;2023-03-24T21:05:37;11.60;99.90
19037;DHT22;9651;49.138;8.900;2023-03-24T21:09:39;11.50;99.90
19037;DHT22;9651;49.138;8.900;2023-03-24T21:13:41;11.60;99.90
19037;DHT22;9651;49.138;8.900;2023-03-24T21:17:43;11.60;99.90
19037;DHT22;9651;49.138;8.900;2023-03-24T21:21:47;11.60;99.90
19037;DHT22;9651;49.138;8.900;2023-03-24T21:25:50;11.60;99.90
19037;DHT22;9651;49.138;8.900;2023-03-24T21:29:52;11.60;99.90
19037;DHT22;9651;49.138;8.900;2023-03-24T21:33:55;11.60;99.90
19037;DHT22;9651;49.138;8.900;2023-03-24T21:37:59;11.60;99.90
19037;DHT22;9651;49.138;8.900;2023-03-24T21:42:00;11.60;99.90
19037;DHT22;9651;49.138;8.900;2023-03-24T21:46:04;11.60;99.90
19037;DHT22;9651;49.138;8.900;2023-03-24T21:50:07;11.60;99.90
19037;DHT22;9651;49.138;8.900;2023-03-24T21:54:12;11.60;99.90
19037;DHT22;9651;49.138;8.900;2023-03-24T21:58:14;11.60;99.90
19037;DHT22;9651;49.138;8.900;2023-03-24T22:02:16;11.60;99.90
19037;DHT22;9651;49.138;8.900;2023-03-24T22:06:19;11.60;99.90
19037;DHT22;9651;49.138;8.900;2023-03-24T22:10:23;11.60;99.90
19037;DHT22;9651;49.138;8.900;2023-03-24T22:14:29;11.50;99.90
19037;DHT22;9651;49.138;8.900;2023-03-24T22:18:33;11.40;99.90
19037;DHT22;9651;49.138;8.900;2023-03-24T22:22:35;11.40;99.90
19037;DHT22;9651;49.138;8.900;2023-03-24T22:26:39;11.40;99.90
19037;DHT22;9651;49.138;8.900;2023-03-24T22:30:41;11.40;99.90
19037;DHT22;9651;49.138;8.900;2023-03-24T22:34:42;11.40;99.90
19037;DHT22;9651;49.138;8.900;2023-03-24T22:38:44;11.40;99.90
19037;DHT22;9651;49.138;8.900;2023-03-24T22:42:47;11.40;99.90
19037;DHT22;9651;49.138;8.900;2023-03-24T22:46:49;11.40;99.90
19037;DHT22;9651;49.138;8.900;2023-03-24T22:50:52;11.40;99.90
19037;DHT22;9651;49.138;8.900;2023-03-24T22:54:54;11.50;99.90
19037;DHT22;9651;49.138;8.900;2023-03-24T22:58:57;11.50;99.90
19037;DHT22;9651;49.138;8.900;2023-03-24T23:02:59;11.40;99.90
19037;DHT22;9651;49.138;8.900;2023-03-24T23:07:01;11.20;99.90
19037;DHT22;9651;49.138;8.900;2023-03-24T23:11:05;10.90;99.90
19037;DHT22;9651;49.138;8.900;2023-03-24T23:15:10;10.70;99.90
19037;DHT22;9651;49.138;8.900;2023-03-24T23:19:13;10.50;99.90
19037;DHT22;9651;49.138;8.900;2023-03-24T23:23:15;10.40;99.90
19037;DHT22;9651;49.138;8.900;2023-03-24T23:27:17;10.40;99.90
19037;DHT22;9651;49.138;8.900;2023-03-24T23:31:23;10.30;99.90
19037;DHT22;9651;49.138;8.900;2023-03-24T23:35:25;10.20;99.90
19037;DHT22;9651;49.138;8.900;2023-03-24T23:39:27;10.20;99.90
19037;DHT22;9651;49.138;8.900;2023-03-24T23:43:30;10.20;99.90
19037;DHT22;9651;49.138;8.900;2023-03-24T23:47:34;10.20;99.90
19037;DHT22;9651;49.138;8.900;2023-03-24T23:51:36;10.20;99.90
19037;DHT22;9651;49.138;8.900;2023-03-24T23:55:38;10.10;99.90
19037;DHT22;9651;49.138;8.900;2023-03-24T23:59:41;10.10;99.90
